createdAt,value
2024-05-09T00:02:08.096Z,8.20
2024-05-09T00:04:38.497Z,8.10
2024-05-09T00:07:11.383Z,8.10
2024-05-09T00:09:41.564Z,8.00
2024-05-09T00:12:11.871Z,7.90
2024-05-09T00:14:42.038Z,7.90
2024-05-09T00:17:12.308Z,7.80
2024-05-09T00:19:42.560Z,7.80
2024-05-09T00:22:15.562Z,7.70
2024-05-09T00:24:45.700Z,7.70
2024-05-09T00:27:15.952Z,7.60
2024-05-09T00:29:46.127Z,7.60
2024-05-09T00:32:16.388Z,7.50
2024-05-09T00:34:46.768Z,7.50
2024-05-09T00:37:19.522Z,7.50
2024-05-09T00:39:49.742Z,7.30
2024-05-09T00:42:19.921Z,7.40
2024-05-09T00:44:50.028Z,7.30
2024-05-09T00:47:20.565Z,7.20
2024-05-09T00:49:51.469Z,7.10
2024-05-09T00:52:25.185Z,7.00
2024-05-09T00:54:55.352Z,6.90
2024-05-09T00:57:26.119Z,7.00
2024-05-09T00:59:58.080Z,6.80
2024-05-09T01:02:28.851Z,6.70
2024-05-09T01:04:59.328Z,6.70
2024-05-09T01:07:32.227Z,6.60
2024-05-09T01:10:02.498Z,6.60
2024-05-09T01:12:33.346Z,6.50
2024-05-09T01:15:03.550Z,6.50
2024-05-09T01:17:34.015Z,6.40
2024-05-09T01:20:06.315Z,6.30
2024-05-09T01:22:42.520Z,6.20
2024-05-09T01:25:15.910Z,6.10
2024-05-09T01:27:45.936Z,6.10
2024-05-09T01:30:21.007Z,6.00
2024-05-09T01:32:54.799Z,6.00
2024-05-09T01:35:25.526Z,5.90
2024-05-09T01:37:56.113Z,5.80
2024-05-09T01:40:36.659Z,5.80
2024-05-09T01:43:10.859Z,5.80
2024-05-09T01:45:42.380Z,5.70
2024-05-09T01:48:12.921Z,5.70
2024-05-09T01:50:43.757Z,5.70
2024-05-09T01:53:15.642Z,5.60
2024-05-09T01:55:48.482Z,5.60
2024-05-09T01:58:18.646Z,5.50
2024-05-09T02:00:48.970Z,5.50
2024-05-09T02:03:19.560Z,5.40
2024-05-09T02:05:51.265Z,5.40
2024-05-09T02:08:22.542Z,5.30
2024-05-09T02:10:55.534Z,5.30
2024-05-09T02:13:25.738Z,5.30
2024-05-09T02:15:55.909Z,5.20
2024-05-09T02:18:26.066Z,5.20
2024-05-09T02:20:56.375Z,5.10
2024-05-09T02:23:26.459Z,5.10
2024-05-09T02:25:59.307Z,5.10
2024-05-09T02:28:29.425Z,5.00
2024-05-09T02:30:59.561Z,5.00
2024-05-09T02:33:29.824Z,4.90
2024-05-09T02:36:00.058Z,4.90
2024-05-09T02:38:27.641Z,4.80
2024-05-09T02:41:00.401Z,4.80
2024-05-09T02:43:27.969Z,4.80
2024-05-09T02:45:58.061Z,4.80
2024-05-09T02:48:25.730Z,4.70
2024-05-09T02:50:55.874Z,4.70
2024-05-09T02:53:23.527Z,4.70
2024-05-09T02:55:53.966Z,4.60
2024-05-09T02:58:24.181Z,4.60
2024-05-09T03:00:54.377Z,4.50
2024-05-09T03:03:22.228Z,4.50
2024-05-09T03:05:52.540Z,4.40
2024-05-09T03:08:20.067Z,4.40
2024-05-09T03:10:50.188Z,4.40
2024-05-09T03:13:17.819Z,4.30
2024-05-09T03:15:50.509Z,4.30
2024-05-09T03:18:18.128Z,4.30
2024-05-09T03:20:48.317Z,4.30
2024-05-09T03:23:15.911Z,4.30
2024-05-09T03:25:46.080Z,4.30
2024-05-09T03:28:13.690Z,4.30
2024-05-09T03:30:43.953Z,4.30
2024-05-09T03:33:15.715Z,4.30
2024-05-09T03:35:47.282Z,4.30
2024-05-09T03:38:17.714Z,4.30
2024-05-09T03:40:49.317Z,4.30
2024-05-09T03:43:20.807Z,4.30
2024-05-09T03:45:49.985Z,4.30
2024-05-09T03:48:22.874Z,4.30
2024-05-09T03:50:50.965Z,4.40
2024-05-09T03:53:21.332Z,4.40
2024-05-09T03:55:50.076Z,4.50
2024-05-09T03:58:20.118Z,4.60
2024-05-09T04:00:47.632Z,4.70
2024-05-09T04:03:18.335Z,4.80
2024-05-09T04:05:48.828Z,5.00
2024-05-09T04:08:19.215Z,5.10
2024-05-09T04:10:46.856Z,5.20
2024-05-09T04:13:16.867Z,5.30
2024-05-09T04:15:44.349Z,5.50
2024-05-09T04:18:14.634Z,5.50
2024-05-09T04:20:42.288Z,5.70
2024-05-09T04:23:16.850Z,5.80
2024-05-09T04:25:45.907Z,6.00
2024-05-09T04:28:16.681Z,6.20
2024-05-09T04:30:44.199Z,6.40
2024-05-09T04:33:15.188Z,6.70
2024-05-09T04:35:43.835Z,6.80
2024-05-09T04:38:16.944Z,6.90
2024-05-09T04:40:44.572Z,6.90
2024-05-09T04:43:19.197Z,6.90
2024-05-09T04:45:47.201Z,6.90
2024-05-09T04:48:17.467Z,6.90
2024-05-09T04:50:45.133Z,7.00
2024-05-09T04:53:20.555Z,7.00
2024-05-09T04:55:48.227Z,7.00
2024-05-09T04:58:18.328Z,7.10
2024-05-09T05:00:46.046Z,7.20
2024-05-09T05:03:16.925Z,7.20
2024-05-09T05:05:45.978Z,7.40
2024-05-09T05:08:17.992Z,7.40
2024-05-09T05:10:49.621Z,7.50
2024-05-09T05:13:21.478Z,7.60
2024-05-09T05:15:50.941Z,7.70
2024-05-09T05:18:21.230Z,7.80
2024-05-09T05:20:49.180Z,7.80
2024-05-09T05:23:22.376Z,7.90
2024-05-09T05:25:53.607Z,8.00
2024-05-09T05:28:24.436Z,8.10
2024-05-09T05:30:51.998Z,8.20
2024-05-09T05:33:22.968Z,8.30
2024-05-09T05:35:51.301Z,8.40
2024-05-09T05:38:25.043Z,8.60
2024-05-09T05:40:57.754Z,8.70
2024-05-09T05:43:28.108Z,8.70
2024-05-09T05:45:55.718Z,8.80
2024-05-09T05:48:25.922Z,9.00
2024-05-09T05:50:53.591Z,9.20
2024-05-09T05:53:23.890Z,9.40
2024-05-09T05:55:51.502Z,9.60
2024-05-09T05:58:24.315Z,9.70
2024-05-09T06:00:53.897Z,9.90
2024-05-09T06:03:24.117Z,10.10
2024-05-09T06:05:51.711Z,10.30
2024-05-09T06:08:21.914Z,10.50
2024-05-09T06:10:49.762Z,10.50
2024-05-09T06:13:20.694Z,10.80
2024-05-09T06:15:50.760Z,11.20
2024-05-09T06:18:21.089Z,11.40
2024-05-09T06:20:48.812Z,12.00
2024-05-09T06:23:19.056Z,13.20
2024-05-09T06:25:46.698Z,14.30
2024-05-09T06:28:16.806Z,14.80
2024-05-09T06:30:44.238Z,16.40
2024-05-09T06:33:17.177Z,17.20
2024-05-09T06:35:46.256Z,17.70
2024-05-09T06:38:16.814Z,17.90
2024-05-09T06:40:44.829Z,18.20
2024-05-09T06:43:18.164Z,18.30
2024-05-09T06:45:48.228Z,19.60
2024-05-09T06:48:23.910Z,19.90
2024-05-09T06:50:51.623Z,20.50
2024-05-09T06:53:25.398Z,20.50
2024-05-09T06:55:53.108Z,20.40
2024-05-09T06:58:23.846Z,20.40
2024-05-09T07:00:51.479Z,20.40
2024-05-09T07:03:24.484Z,20.30
2024-05-09T07:05:52.177Z,20.40
2024-05-09T07:08:22.376Z,20.10
2024-05-09T07:10:50.261Z,19.90
2024-05-09T07:13:20.682Z,20.40
2024-05-09T07:15:48.200Z,20.20
2024-05-09T07:18:20.411Z,20.70
2024-05-09T07:20:51.241Z,20.70
2024-05-09T07:23:21.787Z,21.00
2024-05-09T07:25:49.613Z,20.90
2024-05-09T07:28:20.943Z,21.00
2024-05-09T07:30:48.575Z,20.70
2024-05-09T07:33:20.226Z,20.80
2024-05-09T07:35:52.262Z,20.20
2024-05-09T07:38:22.674Z,20.80
2024-05-09T07:40:50.430Z,21.10
2024-05-09T07:43:20.525Z,21.10
2024-05-09T07:45:53.156Z,21.20
2024-05-09T07:53:00.848Z,21.00
2024-05-09T07:53:52.478Z,22.10
2024-05-09T07:56:23.902Z,21.70
2024-05-09T07:58:55.828Z,21.70
2024-05-09T08:01:26.343Z,21.50
2024-05-09T08:03:57.274Z,21.20
2024-05-09T08:06:27.736Z,21.90
2024-05-09T08:09:03.025Z,21.30
2024-05-09T08:11:35.308Z,20.10
2024-05-09T08:14:05.390Z,20.30
2024-05-09T08:16:32.943Z,20.70
2024-05-09T08:19:04.029Z,20.70
2024-05-09T08:21:36.918Z,21.00
2024-05-09T08:24:04.690Z,20.60
2024-05-09T08:26:35.266Z,21.20
2024-05-09T08:29:02.941Z,21.90
2024-05-09T08:31:33.026Z,21.60
2024-05-09T08:34:00.828Z,21.50
2024-05-09T08:36:31.133Z,21.80
2024-05-09T08:39:01.268Z,21.90
2024-05-09T08:41:33.389Z,21.80
2024-05-09T08:44:01.672Z,21.40
2024-05-09T08:46:33.126Z,21.60
2024-05-09T08:49:01.988Z,21.80
2024-05-09T08:51:32.431Z,22.30
2024-05-09T08:54:02.600Z,21.40
2024-05-09T08:56:37.176Z,21.00
2024-05-09T08:59:09.993Z,21.10
2024-05-09T09:01:43.572Z,21.40
2024-05-09T09:04:13.263Z,21.80
2024-05-09T09:06:44.600Z,21.90
2024-05-09T09:09:15.365Z,21.60
2024-05-09T09:11:45.576Z,21.30
2024-05-09T09:14:13.220Z,20.90
2024-05-09T09:16:43.314Z,21.00
2024-05-09T09:19:11.203Z,21.20
2024-05-09T09:21:42.719Z,21.40
2024-05-09T09:24:10.575Z,21.50
2024-05-09T09:26:43.569Z,20.90
2024-05-09T09:29:11.196Z,21.00
2024-05-09T09:31:42.281Z,21.30
2024-05-09T09:34:10.033Z,21.80
2024-05-09T09:36:42.123Z,21.90
2024-05-09T09:39:10.878Z,21.50
2024-05-09T09:41:47.008Z,20.90
2024-05-09T09:44:15.702Z,21.00
2024-05-09T09:46:46.389Z,21.00
2024-05-09T09:49:14.709Z,20.80
2024-05-09T09:51:46.043Z,20.70
2024-05-09T09:54:14.041Z,20.90
2024-05-09T09:56:48.858Z,21.30
2024-05-09T09:59:17.107Z,20.50
2024-05-09T10:01:48.313Z,20.30
2024-05-09T10:04:19.001Z,20.10
2024-05-09T10:06:53.383Z,20.10
2024-05-09T10:09:22.001Z,19.90
2024-05-09T10:11:59.987Z,19.50
2024-05-09T10:14:31.072Z,19.10
2024-05-09T10:17:08.420Z,18.60
2024-05-09T10:19:36.034Z,18.60
2024-05-09T10:22:09.133Z,18.30
2024-05-09T10:24:50.377Z,18.90
2024-05-09T10:27:29.774Z,19.30
2024-05-09T10:29:58.481Z,19.40
2024-05-09T10:32:30.702Z,19.80
2024-05-09T10:35:01.785Z,20.20
2024-05-09T10:37:34.164Z,20.80
2024-05-09T10:40:03.247Z,20.80
2024-05-09T10:42:37.001Z,20.50
2024-05-09T10:45:04.915Z,20.70
2024-05-09T10:47:35.152Z,20.90
2024-05-09T10:50:04.880Z,20.30
2024-05-09T10:52:37.989Z,20.80
2024-05-09T10:55:06.464Z,21.00
2024-05-09T10:57:43.889Z,20.90
2024-05-09T11:00:18.877Z,20.60
2024-05-09T11:02:53.703Z,20.40
2024-05-09T11:05:23.075Z,20.60
2024-05-09T11:07:53.685Z,20.60
2024-05-09T11:10:27.722Z,19.80
2024-05-09T11:13:06.797Z,20.00
2024-05-09T11:15:40.768Z,20.20
2024-05-09T11:18:25.298Z,20.20
2024-05-09T11:20:54.928Z,20.10
2024-05-09T11:23:26.429Z,20.00
2024-05-09T11:25:55.100Z,20.10
2024-05-09T11:28:29.873Z,20.00
2024-05-09T11:31:05.714Z,19.70
2024-05-09T11:33:39.280Z,19.80
2024-05-09T11:36:08.238Z,19.50
2024-05-09T11:38:38.465Z,19.60
2024-05-09T11:41:06.639Z,19.60
2024-05-09T11:43:39.371Z,19.60
2024-05-09T11:46:06.955Z,19.40
2024-05-09T11:48:37.342Z,19.60
2024-05-09T11:51:05.548Z,19.40
2024-05-09T11:53:35.626Z,19.40
2024-05-09T11:56:03.420Z,19.50
2024-05-09T11:58:34.959Z,19.50
2024-05-09T12:01:05.716Z,19.50
2024-05-09T12:03:38.139Z,19.30
2024-05-09T12:06:06.209Z,19.40
2024-05-09T12:08:36.393Z,19.20
2024-05-09T12:11:04.269Z,19.10
2024-05-09T12:13:34.472Z,19.20
2024-05-09T12:16:05.167Z,19.30
2024-05-09T12:18:35.643Z,18.90
2024-05-09T12:21:03.410Z,18.80
2024-05-09T12:23:35.193Z,18.80
2024-05-09T12:26:03.226Z,18.80
2024-05-09T12:28:33.397Z,18.90
2024-05-09T12:31:01.053Z,19.00
2024-05-09T12:33:33.996Z,19.10
2024-05-09T12:36:01.643Z,19.20
2024-05-09T12:38:31.774Z,19.20
2024-05-09T12:40:59.288Z,19.40
2024-05-09T12:43:29.549Z,19.30
2024-05-09T12:45:57.137Z,19.30
2024-05-09T12:48:27.508Z,19.30
2024-05-09T12:50:57.901Z,19.30
2024-05-09T12:53:28.192Z,19.20
2024-05-09T12:55:59.966Z,19.10
2024-05-09T12:58:32.629Z,19.20
2024-05-09T13:01:00.311Z,19.40
2024-05-09T13:03:30.638Z,19.30
2024-05-09T13:06:01.036Z,19.20
2024-05-09T13:08:31.230Z,19.40
2024-05-09T13:10:59.219Z,19.40
2024-05-09T13:13:29.485Z,19.30
2024-05-09T13:15:57.195Z,19.40
2024-05-09T13:18:27.817Z,19.40
2024-05-09T13:20:55.386Z,19.50
2024-05-09T13:23:28.188Z,19.50
2024-05-09T13:25:55.755Z,19.50
2024-05-09T13:28:25.997Z,19.50
2024-05-09T13:30:53.637Z,19.50
2024-05-09T13:33:23.831Z,19.50
2024-05-09T13:35:51.577Z,19.60
2024-05-09T13:38:22.578Z,19.30
2024-05-09T13:40:52.936Z,19.50
2024-05-09T13:43:24.124Z,19.50
2024-05-09T13:45:52.449Z,19.50
2024-05-09T13:48:22.700Z,19.40
2024-05-09T13:50:50.390Z,19.40
2024-05-09T13:53:20.402Z,19.40
2024-05-09T13:55:48.437Z,19.40
2024-05-09T13:58:23.608Z,19.40
2024-05-09T14:00:51.603Z,19.40
2024-05-09T14:03:21.974Z,19.20
2024-05-09T14:05:51.185Z,19.20
2024-05-09T14:08:22.816Z,19.00
2024-05-09T14:10:51.134Z,19.10
2024-05-09T14:13:24.151Z,19.20
2024-05-09T14:15:51.959Z,19.30
2024-05-09T14:18:22.437Z,19.30
2024-05-09T14:20:49.951Z,19.20
2024-05-09T14:23:21.043Z,19.20
2024-05-09T14:25:52.168Z,19.20
2024-05-09T14:28:27.203Z,19.30
2024-05-09T14:30:56.955Z,19.10
2024-05-09T14:33:27.983Z,19.10
2024-05-09T14:35:55.808Z,19.10
2024-05-09T14:38:26.937Z,19.10
2024-05-09T14:40:54.746Z,19.20
2024-05-09T14:43:27.877Z,19.30
2024-05-09T14:45:56.109Z,19.20
2024-05-09T14:48:27.212Z,19.10
2024-05-09T14:50:55.023Z,19.20
2024-05-09T14:53:26.702Z,19.20
2024-05-09T14:55:54.583Z,19.20
2024-05-09T14:58:27.596Z,19.20
2024-05-09T15:00:55.461Z,19.10
2024-05-09T15:03:25.801Z,19.10
2024-05-09T15:05:53.676Z,18.90
2024-05-09T15:08:24.117Z,18.90
2024-05-09T15:10:52.133Z,18.80
2024-05-09T15:13:23.266Z,18.70
2024-05-09T15:15:53.695Z,18.70
2024-05-09T15:18:24.004Z,18.60
2024-05-09T15:20:51.673Z,18.60
2024-05-09T15:23:21.719Z,18.70
2024-05-09T15:25:49.638Z,18.70
2024-05-09T15:28:19.986Z,18.60
2024-05-09T15:30:48.324Z,18.70
2024-05-09T15:33:21.215Z,18.60
2024-05-09T15:35:53.718Z,18.60
2024-05-09T15:38:21.412Z,18.60
2024-05-09T15:40:51.715Z,18.60
2024-05-09T15:43:19.424Z,18.60
2024-05-09T15:45:49.755Z,18.60
2024-05-09T15:48:20.124Z,18.60
2024-05-09T15:50:50.330Z,18.50
2024-05-09T15:53:17.952Z,18.40
2024-05-09T15:55:48.020Z,18.40
2024-05-09T15:58:16.026Z,18.40
2024-05-09T16:00:48.734Z,18.40
2024-05-09T16:03:21.456Z,18.40
2024-05-09T16:05:53.168Z,18.30
2024-05-09T16:08:20.894Z,18.30
2024-05-09T16:10:51.162Z,18.20
2024-05-09T16:13:19.962Z,18.20
2024-05-09T16:15:50.457Z,18.20
2024-05-09T16:18:21.644Z,18.20
2024-05-09T16:20:59.575Z,18.10
2024-05-09T16:23:27.240Z,18.10
2024-05-09T16:25:57.413Z,18.00
2024-05-09T16:28:26.971Z,18.00
2024-05-09T16:30:58.363Z,18.00
2024-05-09T16:33:28.746Z,18.00
2024-05-09T16:36:00.105Z,18.00
2024-05-09T16:38:27.732Z,18.00
2024-05-09T16:40:57.930Z,17.90
2024-05-09T16:43:26.082Z,17.80
2024-05-09T16:45:56.366Z,17.80
2024-05-09T16:48:24.180Z,17.60
2024-05-09T16:50:56.959Z,17.60
2024-05-09T16:53:25.895Z,17.50
2024-05-09T16:55:56.093Z,17.50
2024-05-09T16:58:24.802Z,17.50
2024-05-09T17:00:55.074Z,17.40
2024-05-09T17:03:23.823Z,17.40
2024-05-09T17:05:56.911Z,17.30
2024-05-09T17:08:24.633Z,17.20
2024-05-09T17:10:54.892Z,17.20
2024-05-09T17:13:23.224Z,17.10
2024-05-09T17:15:53.684Z,17.10
2024-05-09T17:18:24.019Z,17.00
2024-05-09T17:20:56.888Z,17.00
2024-05-09T17:23:24.535Z,16.90
2024-05-09T17:25:54.752Z,16.80
2024-05-09T17:28:22.522Z,16.70
2024-05-09T17:30:52.736Z,16.60
2024-05-09T17:33:20.350Z,16.50
2024-05-09T17:35:51.540Z,16.50
2024-05-09T17:38:23.549Z,16.30
2024-05-09T17:40:54.876Z,16.20
2024-05-09T17:43:22.794Z,16.10
2024-05-09T17:45:53.019Z,16.00
2024-05-09T17:48:20.910Z,15.90
2024-05-09T17:50:51.624Z,15.70
2024-05-09T17:53:22.058Z,15.60
2024-05-09T17:55:53.998Z,15.40
2024-05-09T17:58:21.848Z,15.20
2024-05-09T18:00:52.442Z,15.10
2024-05-09T18:03:20.277Z,14.90
2024-05-09T18:05:50.447Z,14.80
2024-05-09T18:08:18.205Z,14.60
2024-05-09T18:10:52.712Z,14.50
2024-05-09T18:13:21.751Z,14.30
2024-05-09T18:15:52.016Z,14.20
2024-05-09T18:18:19.806Z,14.10
2024-05-09T18:20:49.991Z,13.90
2024-05-09T18:23:18.685Z,13.80
2024-05-09T18:25:54.826Z,13.70
2024-05-09T18:28:23.557Z,13.60
2024-05-09T18:30:53.735Z,13.50
2024-05-09T18:33:21.721Z,13.40
2024-05-09T18:35:51.907Z,13.30
2024-05-09T18:38:20.837Z,13.10
2024-05-09T18:40:53.632Z,13.00
2024-05-09T18:43:28.476Z,12.90
2024-05-09T18:46:01.822Z,12.70
2024-05-09T18:48:29.527Z,12.70
2024-05-09T18:50:59.789Z,12.60
2024-05-09T18:53:27.370Z,12.50
2024-05-09T18:56:00.387Z,12.40
2024-05-09T18:58:27.923Z,12.30
2024-05-09T19:01:00.785Z,12.10
2024-05-09T19:03:29.361Z,12.10
2024-05-09T19:05:59.905Z,12.00
2024-05-09T19:08:28.619Z,11.80
2024-05-09T19:11:02.105Z,11.80
2024-05-09T19:13:29.944Z,11.70
2024-05-09T19:16:00.333Z,11.60
2024-05-09T19:18:28.231Z,11.60
2024-05-09T19:20:58.999Z,11.50
2024-05-09T19:23:26.771Z,11.40
2024-05-09T19:25:56.858Z,11.30
2024-05-09T19:28:27.265Z,11.20
2024-05-09T19:30:57.638Z,11.20
2024-05-09T19:33:26.287Z,11.10
2024-05-09T19:35:56.658Z,11.00
2024-05-09T19:38:24.545Z,10.90
2024-05-09T19:40:54.806Z,10.90
2024-05-09T19:43:23.205Z,10.70
2024-05-09T19:45:56.487Z,10.60
2024-05-09T19:48:24.699Z,10.50
2024-05-09T19:50:55.121Z,10.50
2024-05-09T19:53:23.154Z,10.40
2024-05-09T19:55:53.274Z,10.30
2024-05-09T19:58:21.138Z,10.20
2024-05-09T20:00:51.555Z,10.10
2024-05-09T20:03:21.869Z,10.00
2024-05-09T20:05:52.219Z,10.00
2024-05-09T20:08:19.817Z,10.00
2024-05-09T20:10:50.075Z,9.90
2024-05-09T20:13:17.761Z,9.80
2024-05-09T20:15:47.961Z,9.70
2024-05-09T20:18:18.136Z,9.70
2024-05-09T20:20:53.908Z,9.60
2024-05-09T20:23:21.858Z,9.50
2024-05-09T20:25:51.952Z,9.40
2024-05-09T20:28:19.656Z,9.30
2024-05-09T20:30:49.857Z,9.20
2024-05-09T20:33:17.517Z,9.10
2024-05-09T20:35:50.231Z,9.00
2024-05-09T20:38:17.770Z,8.90
2024-05-09T20:40:48.131Z,8.80
2024-05-09T20:43:15.876Z,8.70
2024-05-09T20:45:46.021Z,8.70
2024-05-09T20:48:13.873Z,8.60
2024-05-09T20:50:44.728Z,8.50
2024-05-09T20:53:15.488Z,8.50
2024-05-09T20:55:46.114Z,8.40
2024-05-09T20:58:14.049Z,8.30
2024-05-09T21:00:45.813Z,8.20
2024-05-09T21:03:16.303Z,8.20
2024-05-09T21:05:48.398Z,8.10
2024-05-09T21:08:19.934Z,8.00
2024-05-09T21:10:50.228Z,8.00
2024-05-09T21:13:18.055Z,7.90
2024-05-09T21:15:48.392Z,7.90
2024-05-09T21:18:16.042Z,7.90
2024-05-09T21:20:48.948Z,7.80
2024-05-09T21:23:19.165Z,7.80
2024-05-09T21:25:49.326Z,7.70
2024-05-09T21:28:17.025Z,7.70
2024-05-09T21:30:47.166Z,7.60
2024-05-09T21:33:15.431Z,7.60
2024-05-09T21:35:46.185Z,7.50
2024-05-09T21:38:14.768Z,7.50
2024-05-09T21:40:47.890Z,7.50
2024-05-09T21:43:15.703Z,7.50
2024-05-09T21:45:46.192Z,7.50
2024-05-09T21:48:13.983Z,7.50
2024-05-09T21:50:44.694Z,7.50
2024-05-09T21:53:13.450Z,7.50
2024-05-09T21:55:47.028Z,7.50
2024-05-09T21:58:15.084Z,7.50
2024-05-09T22:00:46.598Z,7.40
2024-05-09T22:03:14.826Z,7.50
2024-05-09T22:05:45.532Z,7.40
2024-05-09T22:08:13.301Z,7.30
2024-05-09T22:10:43.674Z,7.30
2024-05-09T22:13:14.030Z,7.20
2024-05-09T22:15:44.644Z,7.20
2024-05-09T22:18:12.431Z,7.20
2024-05-09T22:20:45.792Z,7.10
2024-05-09T22:23:14.691Z,7.10
2024-05-09T22:25:45.156Z,7.00
2024-05-09T22:28:16.318Z,7.00
2024-05-09T22:30:47.552Z,6.90
2024-05-09T22:33:16.013Z,6.80
2024-05-09T22:35:47.645Z,6.80
2024-05-09T22:38:15.406Z,6.80
2024-05-09T22:40:48.915Z,6.80
2024-05-09T22:43:24.871Z,6.80
2024-05-09T22:45:56.129Z,6.90
2024-05-09T22:48:24.495Z,6.80
2024-05-09T22:50:55.283Z,6.90
2024-05-09T22:53:23.990Z,6.80
2024-05-09T22:55:54.254Z,6.80
2024-05-09T22:58:24.632Z,6.80
2024-05-09T23:00:54.941Z,6.80
2024-05-09T23:03:23.032Z,6.80
2024-05-09T23:05:53.274Z,6.80
2024-05-09T23:08:21.115Z,6.70
2024-05-09T23:10:51.415Z,6.60
2024-05-09T23:13:19.460Z,6.60
2024-05-09T23:15:52.349Z,6.70
2024-05-09T23:18:20.039Z,6.60
2024-05-09T23:20:50.311Z,6.50
2024-05-09T23:23:18.091Z,6.60
2024-05-09T23:25:48.272Z,6.60
2024-05-09T23:28:15.789Z,6.50
2024-05-09T23:30:46.212Z,6.50
2024-05-09T23:33:16.508Z,6.40
2024-05-09T23:35:46.724Z,6.30
2024-05-09T23:38:14.308Z,6.30
2024-05-09T23:40:44.434Z,6.20
2024-05-09T23:43:12.854Z,6.20
2024-05-09T23:45:43.641Z,6.10
2024-05-09T23:48:11.790Z,6.00
2024-05-09T23:50:44.746Z,6.00
2024-05-09T23:53:14.460Z,5.90
2024-05-09T23:55:44.778Z,5.80
2024-05-09T23:58:12.386Z,5.80
